createdAt,value
2019-03-11T00:00:11.419Z,93810.24
2019-03-11T00:02:40.188Z,93809.92
2019-03-11T00:05:09.459Z,93814.25
2019-03-11T00:07:38.089Z,93812.27
2019-03-11T00:10:08.423Z,93815.82
2019-03-11T00:12:37.080Z,93816.30
2019-03-11T00:15:08.192Z,93811.25
2019-03-11T00:17:36.811Z,93811.55
2019-03-11T00:20:08.106Z,93812.44
2019-03-11T00:22:36.935Z,93817.36
2019-03-11T00:25:05.656Z,93810.92
2019-03-11T00:27:34.320Z,93817.16
2019-03-11T00:30:03.344Z,93809.14
2019-03-11T00:32:31.982Z,93806.28
2019-03-11T00:35:00.721Z,93801.75
2019-03-11T00:37:29.343Z,93804.33
2019-03-11T00:39:57.983Z,93804.53
2019-03-11T00:42:26.651Z,93799.81
2019-03-11T00:44:55.364Z,93805.33
2019-03-11T00:47:23.997Z,93799.72
2019-03-11T00:49:52.674Z,93803.06
2019-03-11T00:52:21.816Z,93806.55
2019-03-11T00:54:50.439Z,93801.00
2019-03-11T00:57:19.114Z,93803.77
2019-03-11T00:59:47.743Z,93813.63
2019-03-11T01:02:16.365Z,93812.46
2019-03-11T01:04:45.038Z,93815.57
2019-03-11T01:07:13.730Z,93814.77
2019-03-11T01:09:42.363Z,93821.17
2019-03-11T01:12:11.038Z,93824.81
2019-03-11T01:14:39.672Z,93820.84
2019-03-11T01:17:08.368Z,93825.44
2019-03-11T01:19:37.044Z,93833.22
2019-03-11T01:22:05.670Z,93822.91
2019-03-11T01:24:35.331Z,93810.94
2019-03-11T01:27:04.073Z,93815.06
2019-03-11T01:29:32.625Z,93809.92
2019-03-11T01:32:01.248Z,93802.58
2019-03-11T01:34:29.927Z,93800.54
2019-03-11T01:36:58.629Z,93797.95
2019-03-11T01:39:27.260Z,93795.56
2019-03-11T01:41:55.928Z,93797.31
2019-03-11T01:44:24.621Z,93791.14
2019-03-11T01:46:53.257Z,93787.56
2019-03-11T01:49:23.987Z,93791.67
2019-03-11T01:51:52.223Z,93781.69
2019-03-11T01:54:20.854Z,93775.83
2019-03-11T01:56:49.511Z,93776.03
2019-03-11T01:59:18.203Z,93772.31
2019-03-11T02:01:48.496Z,93781.43
2019-03-11T02:04:17.228Z,93780.77
2019-03-11T02:06:45.850Z,93776.56
2019-03-11T02:09:14.578Z,93771.53
2019-03-11T02:11:43.231Z,93775.05
2019-03-11T02:14:11.855Z,93780.70
2019-03-11T02:16:40.553Z,93778.09
2019-03-11T02:19:09.232Z,93773.92
2019-03-11T02:21:37.921Z,93773.20
2019-03-11T02:24:07.361Z,93771.41
2019-03-11T02:26:36.039Z,93780.81
2019-03-11T02:29:04.667Z,93785.89
2019-03-11T02:31:33.368Z,93782.95
2019-03-11T02:34:02.026Z,93782.05
2019-03-11T02:36:30.743Z,93775.17
2019-03-11T02:38:59.373Z,93784.32
2019-03-11T02:41:28.046Z,93778.39
2019-03-11T02:43:56.689Z,93780.56
2019-03-11T02:46:27.380Z,93777.30
2019-03-11T02:48:56.065Z,93775.66
2019-03-11T02:51:24.687Z,93775.27
2019-03-11T02:53:53.321Z,93779.05
2019-03-11T02:56:21.976Z,93781.31
2019-03-11T02:58:50.672Z,93788.64
2019-03-11T03:01:29.831Z,93793.02
2019-03-11T03:04:00.096Z,93792.62
2019-03-11T03:06:28.721Z,93792.95
2019-03-11T03:08:57.395Z,93805.91
2019-03-11T03:11:26.001Z,93806.77
2019-03-11T03:13:54.702Z,93812.76
2019-03-11T03:16:23.226Z,93805.28
2019-03-11T03:18:51.857Z,93812.21
2019-03-11T03:21:20.482Z,93810.16
2019-03-11T03:23:49.142Z,93817.44
2019-03-11T03:26:17.806Z,93822.23
2019-03-11T03:28:46.481Z,93820.43
2019-03-11T03:31:15.152Z,93820.33
2019-03-11T03:33:43.776Z,93822.72
2019-03-11T03:36:12.396Z,93828.93
2019-03-11T03:38:41.078Z,93827.20
2019-03-11T03:41:09.795Z,93827.49
2019-03-11T03:43:38.421Z,93841.50
2019-03-11T03:46:18.074Z,93839.80
2019-03-11T03:48:37.623Z,93846.95
2019-03-11T03:51:06.367Z,93848.06
2019-03-11T03:53:35.115Z,93846.67
2019-03-11T03:56:03.729Z,93849.97
2019-03-11T03:58:32.368Z,93851.63
2019-03-11T04:01:00.951Z,93858.56
2019-03-11T04:03:29.576Z,93865.58
2019-03-11T04:05:58.205Z,93866.77
2019-03-11T04:08:26.864Z,93878.34
2019-03-11T04:10:55.506Z,93882.42
2019-03-11T04:13:25.218Z,93880.77
2019-03-11T04:15:53.874Z,93886.47
2019-03-11T04:18:23.484Z,93895.14
2019-03-11T04:20:52.106Z,93899.45
2019-03-11T04:23:20.762Z,93898.42
2019-03-11T04:25:49.382Z,93896.33
2019-03-11T04:28:18.850Z,93895.42
2019-03-11T04:30:47.511Z,93896.84
2019-03-11T04:33:16.139Z,93907.12
2019-03-11T04:35:44.866Z,93905.07
2019-03-11T04:38:13.511Z,93906.25
2019-03-11T04:40:42.140Z,93910.22
2019-03-11T04:43:10.769Z,93920.45
2019-03-11T04:45:39.452Z,93914.84
2019-03-11T04:48:08.084Z,93916.94
2019-03-11T04:50:36.694Z,93917.13
2019-03-11T04:53:05.440Z,93916.41
2019-03-11T04:55:34.075Z,93913.81
2019-03-11T04:58:02.778Z,93914.62
2019-03-11T05:00:34.440Z,93919.48
2019-03-11T05:03:03.153Z,93912.39
2019-03-11T05:05:31.761Z,93912.39
2019-03-11T05:08:00.434Z,93918.30
2019-03-11T05:10:29.147Z,93910.78
2019-03-11T05:12:57.772Z,93917.38
2019-03-11T05:15:26.451Z,93914.33
2019-03-11T05:17:55.079Z,93916.10
2019-03-11T05:20:23.720Z,93913.13
2019-03-11T05:22:54.658Z,93910.92
2019-03-11T05:25:22.749Z,93913.73
2019-03-11T05:27:51.451Z,93908.14
2019-03-11T05:30:21.337Z,93906.72
2019-03-11T05:32:49.981Z,93902.91
2019-03-11T05:35:18.676Z,93899.88
2019-03-11T05:37:47.341Z,93900.84
2019-03-11T05:40:17.939Z,93899.03
2019-03-11T05:42:46.937Z,93898.98
2019-03-11T05:45:16.998Z,93898.43
2019-03-11T05:47:45.641Z,93896.37
2019-03-11T05:50:15.069Z,93894.19
2019-03-11T05:52:43.935Z,93892.91
2019-03-11T05:55:13.134Z,93892.90
2019-03-11T05:57:41.770Z,93893.53
2019-03-11T06:00:24.277Z,93894.14
2019-03-11T06:02:52.995Z,93900.08
2019-03-11T06:05:21.614Z,93895.48
2019-03-11T06:07:50.272Z,93896.70
2019-03-11T06:10:18.912Z,93899.06
2019-03-11T06:12:47.527Z,93896.47
2019-03-11T06:15:16.419Z,93907.02
2019-03-11T06:17:45.325Z,93907.09
2019-03-11T06:20:33.915Z,93909.27
2019-03-11T06:23:04.195Z,93918.95
2019-03-11T06:25:32.908Z,93914.00
2019-03-11T06:28:02.839Z,93910.37
2019-03-11T06:30:31.731Z,93912.80
2019-03-11T06:33:00.380Z,93920.30
2019-03-11T06:35:29.118Z,93914.67
2019-03-11T06:37:57.757Z,93913.03
2019-03-11T06:40:26.464Z,93909.15
2019-03-11T06:42:55.128Z,93906.30
2019-03-11T06:45:23.775Z,93892.53
2019-03-11T06:47:52.393Z,93904.30
2019-03-11T06:50:21.054Z,93899.13
2019-03-11T06:52:49.745Z,93887.73
2019-03-11T06:55:18.375Z,93891.26
2019-03-11T06:57:47.114Z,93885.27
2019-03-11T07:00:19.593Z,93883.43
2019-03-11T07:02:48.234Z,93885.72
2019-03-11T07:05:20.470Z,93881.00
2019-03-11T07:07:47.338Z,93879.30
2019-03-11T07:10:16.741Z,93878.08
2019-03-11T07:12:45.413Z,93882.16
2019-03-11T07:15:15.137Z,93869.38
2019-03-11T07:17:43.971Z,93867.52
2019-03-11T07:20:15.221Z,93857.59
2019-03-11T07:22:43.846Z,93851.16
2019-03-11T07:25:12.477Z,93856.72
2019-03-11T07:27:41.224Z,93841.27
2019-03-11T07:30:14.800Z,93839.41
2019-03-11T07:32:43.428Z,93841.80
2019-03-11T07:35:12.096Z,93852.80
2019-03-11T07:37:40.716Z,93847.12
2019-03-11T07:40:11.224Z,93845.20
2019-03-11T07:42:39.897Z,93844.77
2019-03-11T07:45:10.864Z,93835.39
2019-03-11T07:47:39.497Z,93834.48
2019-03-11T07:50:12.260Z,93836.22
2019-03-11T07:52:40.890Z,93831.06
2019-03-11T07:55:10.986Z,93823.36
2019-03-11T07:57:39.734Z,93819.95
2019-03-11T08:00:21.255Z,93822.52
2019-03-11T08:02:49.944Z,93822.41
2019-03-11T08:05:18.639Z,93828.81
2019-03-11T08:07:47.319Z,93819.34
2019-03-11T08:10:23.426Z,93830.75
2019-03-11T08:12:52.062Z,93821.50
2019-03-11T08:15:20.690Z,93812.52
2019-03-11T08:17:49.433Z,93820.00
2019-03-11T08:20:18.139Z,93805.56
2019-03-11T08:22:46.771Z,93812.90
2019-03-11T08:25:16.538Z,93802.13
2019-03-11T08:27:45.265Z,93799.58
2019-03-11T08:30:18.635Z,93797.14
2019-03-11T08:32:47.376Z,93798.05
2019-03-11T08:35:16.755Z,93785.36
2019-03-11T08:37:45.389Z,93792.88
2019-03-11T08:40:20.422Z,93778.84
2019-03-11T08:42:49.050Z,93771.75
2019-03-11T08:45:18.691Z,93772.59
2019-03-11T08:47:47.463Z,93771.66
2019-03-11T08:50:16.684Z,93767.27
2019-03-11T08:52:45.294Z,93770.44
2019-03-11T08:55:14.714Z,93764.20
2019-03-11T08:57:43.418Z,93756.05
2019-03-11T09:00:19.688Z,93760.58
2019-03-11T09:02:48.324Z,93766.84
2019-03-11T09:05:18.535Z,93751.23
2019-03-11T09:07:47.199Z,93746.48
2019-03-11T09:10:16.828Z,93747.16
2019-03-11T09:12:45.465Z,93732.87
2019-03-11T09:15:18.394Z,93733.71
2019-03-11T09:17:47.103Z,93726.95
2019-03-11T09:20:16.979Z,93719.18
2019-03-11T09:22:45.783Z,93724.05
2019-03-11T09:25:27.685Z,93715.83
2019-03-11T09:27:56.348Z,93713.91
2019-03-11T09:30:24.959Z,93716.28
2019-03-11T09:32:53.659Z,93709.86
2019-03-11T09:35:22.337Z,93706.39
2019-03-11T09:37:50.962Z,93701.63
2019-03-11T09:40:20.600Z,93701.98
2019-03-11T09:42:49.266Z,93702.03
2019-03-11T09:45:18.902Z,93705.55
2019-03-11T09:47:48.031Z,93694.70
2019-03-11T09:50:17.478Z,93699.03
2019-03-11T09:52:46.109Z,93698.88
2019-03-11T09:55:30.929Z,93698.89
2019-03-11T09:57:59.563Z,93698.23
2019-03-11T10:00:30.402Z,93705.37
2019-03-11T10:02:59.065Z,93709.75
2019-03-11T10:05:27.705Z,93714.20
2019-03-11T10:07:56.523Z,93711.48
2019-03-11T10:10:26.733Z,93711.69
2019-03-11T10:12:55.371Z,93707.07
2019-03-11T10:15:24.167Z,93710.47
2019-03-11T10:17:52.838Z,93708.11
2019-03-11T10:20:21.664Z,93707.22
2019-03-11T10:22:50.410Z,93691.50
2019-03-11T10:25:22.405Z,93695.80
2019-03-11T10:27:51.034Z,93691.94
2019-03-11T10:30:20.474Z,93687.95
2019-03-11T10:32:49.239Z,93688.54
2019-03-11T10:35:31.275Z,93690.66
2019-03-11T10:37:49.035Z,93686.38
2019-03-11T10:40:22.292Z,93683.42
2019-03-11T10:42:50.921Z,93687.52
2019-03-11T10:45:30.198Z,93684.67
2019-03-11T10:47:49.968Z,93693.37
2019-03-11T10:50:20.369Z,93687.06
2019-03-11T10:52:49.100Z,93692.55
2019-03-11T10:55:18.761Z,93686.25
2019-03-11T10:57:47.463Z,93689.10
2019-03-11T11:00:19.372Z,93685.34
2019-03-11T11:02:48.025Z,93681.52
2019-03-11T11:05:16.661Z,93679.75
2019-03-11T11:07:45.301Z,93674.70
2019-03-11T11:10:16.943Z,93670.47
2019-03-11T11:12:45.673Z,93678.89
2019-03-11T11:15:19.614Z,93661.13
2019-03-11T11:17:48.272Z,93661.12
2019-03-11T11:20:18.709Z,93652.64
2019-03-11T11:22:47.412Z,93646.53
2019-03-11T11:25:17.984Z,93643.84
2019-03-11T11:27:46.632Z,93644.23
2019-03-11T11:30:20.092Z,93636.72
2019-03-11T11:32:48.783Z,93623.47
2019-03-11T11:35:17.917Z,93618.27
2019-03-11T11:37:46.531Z,93615.25
2019-03-11T11:40:31.468Z,93617.11
2019-03-11T11:43:00.174Z,93609.48
2019-03-11T11:45:30.063Z,93608.41
2019-03-11T11:47:58.733Z,93610.09
2019-03-11T11:50:27.522Z,93601.06
2019-03-11T11:52:56.253Z,93596.30
2019-03-11T11:55:25.146Z,93587.16
2019-03-11T11:57:53.869Z,93578.16
2019-03-11T12:00:26.046Z,93573.27
2019-03-11T12:02:54.688Z,93568.33
2019-03-11T12:05:23.418Z,93566.04
2019-03-11T12:07:52.172Z,93559.17
2019-03-11T12:10:30.819Z,93556.27
2019-03-11T12:12:59.440Z,93554.03
2019-03-11T12:15:28.139Z,93549.76
2019-03-11T12:17:56.891Z,93544.09
2019-03-11T12:20:28.427Z,93543.21
2019-03-11T12:22:57.131Z,93535.60
2019-03-11T12:25:25.810Z,93535.53
2019-03-11T12:27:55.003Z,93526.06
2019-03-11T12:30:31.498Z,93522.13
2019-03-11T12:33:00.125Z,93524.91
2019-03-11T12:35:28.847Z,93522.63
2019-03-11T12:37:57.899Z,93518.44
2019-03-11T12:40:26.520Z,93515.13
2019-03-11T12:42:55.413Z,93511.38
2019-03-11T12:45:24.967Z,93504.24
2019-03-11T12:47:53.594Z,93504.00
2019-03-11T12:50:26.513Z,93499.08
2019-03-11T12:52:55.088Z,93496.73
2019-03-11T12:55:23.720Z,93490.83
2019-03-11T12:57:52.348Z,93480.71
2019-03-11T13:00:24.648Z,93487.28
2019-03-11T13:02:53.274Z,93478.95
2019-03-11T13:05:22.313Z,93475.64
2019-03-11T13:07:50.962Z,93469.28
2019-03-11T13:10:25.386Z,93475.14
2019-03-11T13:12:54.111Z,93460.36
2019-03-11T13:15:22.770Z,93464.66
2019-03-11T13:17:51.498Z,93460.25
2019-03-11T13:20:37.925Z,93459.58
2019-03-11T13:23:06.557Z,93454.80
2019-03-11T13:25:35.186Z,93457.64
2019-03-11T13:28:03.843Z,93445.61
2019-03-11T13:30:32.466Z,93442.28
2019-03-11T13:33:01.098Z,93445.84
2019-03-11T13:35:29.763Z,93438.02
2019-03-11T13:37:58.390Z,93441.61
2019-03-11T13:40:27.013Z,93437.48
2019-03-11T13:42:55.696Z,93443.95
2019-03-11T13:45:24.319Z,93438.34
2019-03-11T13:47:52.946Z,93429.48
2019-03-11T13:50:21.614Z,93436.55
2019-03-11T13:52:50.241Z,93433.44
2019-03-11T13:55:18.876Z,93426.25
2019-03-11T13:57:47.942Z,93423.73
2019-03-11T14:00:21.405Z,93422.02
2019-03-11T14:02:50.126Z,93416.60
2019-03-11T14:05:18.905Z,93404.89
2019-03-11T14:07:47.526Z,93402.09
2019-03-11T14:10:16.563Z,93401.02
2019-03-11T14:12:45.297Z,93405.10
2019-03-11T14:15:18.637Z,93407.36
2019-03-11T14:17:47.335Z,93403.95
2019-03-11T14:22:58.169Z,93400.30
2019-03-11T14:25:26.864Z,93395.92
2019-03-11T14:27:55.563Z,93397.81
2019-03-11T14:30:24.419Z,93391.11
2019-03-11T14:32:53.079Z,93384.59
2019-03-11T14:35:21.762Z,93391.13
2019-03-11T14:37:50.429Z,93381.34
2019-03-11T14:40:20.065Z,93387.39
2019-03-11T14:42:48.694Z,93390.72
2019-03-11T14:45:22.138Z,93392.86
2019-03-11T14:47:50.755Z,93396.11
2019-03-11T14:50:19.386Z,93402.41
2019-03-11T14:52:48.048Z,93401.29
2019-03-11T14:55:16.743Z,93398.41
2019-03-11T14:57:45.387Z,93405.22
2019-03-11T15:00:18.332Z,93410.02
2019-03-11T15:02:46.399Z,93404.34
2019-03-11T15:05:16.791Z,93402.34
2019-03-11T15:07:45.653Z,93403.14
2019-03-11T15:10:15.863Z,93414.19
2019-03-11T15:12:44.488Z,93403.00
2019-03-11T15:15:23.574Z,93403.59
2019-03-11T15:17:52.203Z,93408.27
2019-03-11T15:20:20.833Z,93413.63
2019-03-11T15:22:49.593Z,93423.05
2019-03-11T15:25:19.101Z,93426.78
2019-03-11T15:27:48.019Z,93421.31
2019-03-11T15:30:23.821Z,93420.27
2019-03-11T15:32:52.547Z,93421.36
2019-03-11T15:35:21.179Z,93424.85
2019-03-11T15:37:49.876Z,93424.00
2019-03-11T15:40:19.208Z,93424.80
2019-03-11T15:42:48.191Z,93426.78
2019-03-11T15:45:20.209Z,93418.55
2019-03-11T15:47:48.836Z,93429.02
2019-03-11T15:50:26.399Z,93425.88
2019-03-11T15:52:55.031Z,93432.35
2019-03-11T15:55:23.661Z,93430.75
2019-03-11T15:57:52.337Z,93433.89
2019-03-11T16:00:23.097Z,93440.30
2019-03-11T16:02:51.792Z,93439.23
2019-03-11T16:05:25.181Z,93435.38
2019-03-11T16:07:53.853Z,93440.13
2019-03-11T16:10:22.645Z,93445.07
2019-03-11T16:12:51.389Z,93442.91
2019-03-11T16:15:20.227Z,93424.13
2019-03-11T16:17:48.855Z,93432.39
2019-03-11T16:20:19.699Z,93439.25
2019-03-11T16:22:48.526Z,93437.92
2019-03-11T16:25:17.175Z,93445.07
2019-03-11T16:27:45.856Z,93455.71
2019-03-11T16:30:22.956Z,93446.31
2019-03-11T16:32:59.385Z,93437.63
2019-03-11T16:35:23.454Z,93449.59
2019-03-11T16:37:52.088Z,93454.45
2019-03-11T16:40:20.766Z,93448.23
2019-03-11T16:42:49.367Z,93440.72
2019-03-11T16:45:19.475Z,93451.16
2019-03-11T16:47:48.614Z,93446.68
2019-03-11T16:50:19.414Z,93442.42
2019-03-11T16:52:48.035Z,93450.98
2019-03-11T16:55:21.007Z,93453.08
2019-03-11T16:57:49.626Z,93444.50
2019-03-11T17:00:22.238Z,93438.77
2019-03-11T17:02:51.374Z,93435.75
2019-03-11T17:05:20.003Z,93450.33
2019-03-11T17:07:48.644Z,93450.77
2019-03-11T17:10:20.616Z,93462.14
2019-03-11T17:12:49.337Z,93472.41
2019-03-11T17:15:18.046Z,93470.51
2019-03-11T17:17:46.710Z,93470.51
2019-03-11T17:20:17.606Z,93457.42
2019-03-11T17:22:46.304Z,93458.84
2019-03-11T17:25:15.287Z,93464.79
2019-03-11T17:27:43.994Z,93467.63
2019-03-11T17:30:17.497Z,93476.42
2019-03-11T17:32:46.162Z,93466.34
2019-03-11T17:35:16.364Z,93476.27
2019-03-11T17:37:45.377Z,93472.84
2019-03-11T17:40:21.183Z,93472.08
2019-03-11T17:42:49.940Z,93476.23
2019-03-11T17:45:18.534Z,93472.80
2019-03-11T17:47:47.465Z,93475.13
2019-03-11T17:50:18.139Z,93482.11
2019-03-11T17:52:47.158Z,93479.16
2019-03-11T17:55:17.409Z,93479.13
2019-03-11T17:57:46.930Z,93477.53
2019-03-11T18:00:25.057Z,93486.89
2019-03-11T18:02:52.576Z,93487.62
2019-03-11T18:05:21.466Z,93478.45
2019-03-11T18:07:50.165Z,93476.98
2019-03-11T18:10:18.765Z,93474.16
2019-03-11T18:12:47.472Z,93487.31
2019-03-11T18:15:16.406Z,93491.48
2019-03-11T18:17:45.105Z,93499.47
2019-03-11T18:20:16.720Z,93496.44
2019-03-11T18:22:45.381Z,93492.51
2019-03-11T18:25:18.895Z,93492.16
2019-03-11T18:27:47.558Z,93482.66
2019-03-11T18:30:27.362Z,93487.44
2019-03-11T18:32:55.982Z,93483.63
2019-03-11T18:35:24.614Z,93496.29
2019-03-11T18:38:03.527Z,93498.64
2019-03-11T18:40:23.697Z,93508.19
2019-03-11T18:42:52.351Z,93514.48
2019-03-11T18:45:21.032Z,93519.36
2019-03-11T18:47:49.674Z,93521.19
2019-03-11T18:50:24.929Z,93518.53
2019-03-11T18:52:53.642Z,93529.28
2019-03-11T18:55:22.382Z,93521.38
2019-03-11T18:57:51.090Z,93516.45
2019-03-11T19:00:21.145Z,93523.31
2019-03-11T19:02:49.820Z,93517.22
2019-03-11T19:05:22.703Z,93513.81
2019-03-11T19:07:51.357Z,93526.09
2019-03-11T19:10:20.087Z,93512.67
2019-03-11T19:12:48.711Z,93523.29
2019-03-11T19:15:25.002Z,93523.52
2019-03-11T19:17:53.661Z,93520.61
2019-03-11T19:20:23.448Z,93505.68
